createdAt,value
2023-02-20T00:00:37.938Z,6.48
2023-02-20T00:01:37.968Z,6.54
2023-02-20T00:02:37.945Z,6.47
2023-02-20T00:03:37.983Z,6.47
2023-02-20T00:04:37.905Z,6.47
2023-02-20T00:05:37.896Z,6.50
2023-02-20T00:06:37.903Z,6.44
2023-02-20T00:07:37.879Z,6.44
2023-02-20T00:08:37.854Z,6.58
2023-02-20T00:09:37.856Z,6.44
2023-02-20T00:10:37.827Z,6.54
2023-02-20T00:11:37.816Z,6.53
2023-02-20T00:12:37.834Z,6.50
2023-02-20T00:13:37.800Z,6.47
2023-02-20T00:14:37.793Z,6.51
2023-02-20T00:15:37.802Z,6.47
2023-02-20T00:16:37.814Z,6.43
2023-02-20T00:17:37.771Z,6.38
2023-02-20T00:18:37.749Z,6.56
2023-02-20T00:19:37.739Z,6.54
2023-02-20T00:20:37.710Z,6.53
2023-02-20T00:21:38.721Z,6.47
2023-02-20T00:22:37.724Z,6.44
2023-02-20T00:23:37.694Z,6.43
2023-02-20T00:24:37.690Z,6.44
2023-02-20T00:25:37.693Z,6.35
2023-02-20T00:26:37.668Z,6.41
2023-02-20T00:27:37.666Z,6.38
2023-02-20T00:28:37.650Z,6.40
2023-02-20T00:29:37.637Z,6.41
2023-02-20T00:30:37.659Z,6.38
2023-02-20T00:31:37.615Z,6.41
2023-02-20T00:32:37.614Z,6.41
2023-02-20T00:33:37.602Z,6.41
2023-02-20T00:34:37.585Z,6.43
2023-02-20T00:35:37.578Z,6.43
2023-02-20T00:36:37.576Z,6.40
2023-02-20T00:37:37.554Z,6.40
2023-02-20T00:38:37.530Z,6.38
2023-02-20T00:39:38.537Z,6.44
2023-02-20T00:40:37.529Z,6.43
2023-02-20T00:41:37.522Z,6.43
2023-02-20T00:42:37.521Z,6.46
2023-02-20T00:43:37.506Z,6.38
2023-02-20T00:44:37.474Z,6.44
2023-02-20T00:45:37.476Z,6.51
2023-02-20T00:46:37.482Z,6.43
2023-02-20T00:47:37.472Z,6.48
2023-02-20T00:48:37.452Z,6.43
2023-02-20T00:49:37.426Z,6.46
2023-02-20T00:50:37.419Z,6.50
2023-02-20T00:51:38.412Z,6.43
2023-02-20T00:52:37.411Z,6.46
2023-02-20T00:53:37.383Z,6.41
2023-02-20T00:54:37.374Z,6.50
2023-02-20T00:55:37.368Z,6.43
2023-02-20T00:56:37.435Z,6.41
2023-02-20T00:57:37.371Z,6.46
2023-02-20T00:58:37.341Z,6.36
2023-02-20T00:59:37.334Z,6.43
2023-02-20T01:00:37.317Z,6.48
2023-02-20T01:01:37.320Z,6.48
2023-02-20T01:02:37.329Z,6.50
2023-02-20T01:03:37.280Z,6.48
2023-02-20T01:04:37.273Z,6.30
2023-02-20T01:05:37.265Z,6.41
2023-02-20T01:06:37.263Z,6.29
2023-02-20T01:07:37.248Z,6.38
2023-02-20T01:08:37.242Z,6.48
2023-02-20T01:09:37.222Z,6.30
2023-02-20T01:10:37.212Z,6.38
2023-02-20T01:11:37.206Z,6.35
2023-02-20T01:12:37.208Z,6.29
2023-02-20T01:13:37.182Z,6.30
2023-02-20T01:14:37.171Z,6.33
2023-02-20T01:15:37.166Z,6.30
2023-02-20T01:16:37.145Z,6.35
2023-02-20T01:17:37.160Z,6.16
2023-02-20T01:18:37.145Z,6.16
2023-02-20T01:19:37.121Z,6.26
2023-02-20T01:20:37.108Z,6.22
2023-02-20T01:21:37.094Z,6.10
2023-02-20T01:22:37.116Z,6.16
2023-02-20T01:23:37.078Z,6.29
2023-02-20T01:24:37.070Z,6.21
2023-02-20T01:25:37.059Z,6.30
2023-02-20T01:26:37.045Z,6.14
2023-02-20T01:27:37.036Z,6.13
2023-02-20T01:28:38.025Z,6.22
2023-02-20T01:29:37.031Z,6.14
2023-02-20T01:30:37.040Z,6.16
2023-02-20T01:31:37.067Z,6.16
2023-02-20T01:32:37.010Z,6.09
2023-02-20T01:33:36.973Z,6.22
2023-02-20T01:34:36.954Z,6.07
2023-02-20T01:35:36.961Z,6.06
2023-02-20T01:36:36.955Z,6.01
2023-02-20T01:37:36.956Z,6.11
2023-02-20T01:38:36.918Z,6.06
2023-02-20T01:39:36.910Z,6.00
2023-02-20T01:40:36.892Z,6.03
2023-02-20T01:41:36.915Z,5.92
2023-02-20T01:42:36.932Z,6.04
2023-02-20T01:43:36.881Z,6.00
2023-02-20T01:44:36.865Z,6.01
2023-02-20T01:45:36.863Z,6.06
2023-02-20T01:46:36.885Z,5.89
2023-02-20T01:47:36.844Z,5.85
2023-02-20T01:48:36.820Z,5.92
2023-02-20T01:49:36.829Z,5.86
2023-02-20T01:50:36.814Z,5.86
2023-02-20T01:51:36.789Z,5.93
2023-02-20T01:52:36.791Z,5.81
2023-02-20T01:53:36.768Z,5.91
2023-02-20T01:54:36.766Z,5.81
2023-02-20T01:55:36.745Z,5.86
2023-02-20T01:56:36.732Z,5.86
2023-02-20T01:57:36.745Z,5.89
2023-02-20T01:58:36.726Z,6.01
2023-02-20T01:59:36.713Z,5.91
2023-02-20T02:00:36.699Z,5.89
2023-02-20T02:01:36.708Z,5.86
2023-02-20T02:02:36.690Z,5.88
2023-02-20T02:03:36.655Z,5.83
2023-02-20T02:04:36.643Z,5.83
2023-02-20T02:05:36.630Z,5.82
2023-02-20T02:06:36.619Z,5.83
2023-02-20T02:07:36.725Z,5.71
2023-02-20T02:08:36.604Z,5.88
2023-02-20T02:09:36.595Z,5.77
2023-02-20T02:10:36.589Z,5.89
2023-02-20T02:11:36.569Z,5.91
2023-02-20T02:12:36.580Z,5.78
2023-02-20T02:13:36.545Z,5.82
2023-02-20T02:14:36.535Z,5.89
2023-02-20T02:15:36.523Z,5.78
2023-02-20T02:16:36.549Z,5.81
2023-02-20T02:17:36.511Z,5.75
2023-02-20T02:18:36.492Z,5.75
2023-02-20T02:19:36.471Z,5.92
2023-02-20T02:20:36.461Z,5.85
2023-02-20T02:22:02.855Z,5.77
2023-02-20T02:22:36.456Z,5.67
2023-02-20T02:23:36.418Z,5.88
2023-02-20T02:24:36.416Z,5.70
2023-02-20T02:25:36.399Z,5.83
2023-02-20T02:26:36.386Z,5.83
2023-02-20T02:27:37.439Z,5.78
2023-02-20T02:28:36.371Z,5.83
2023-02-20T02:29:36.365Z,5.88
2023-02-20T02:30:36.461Z,5.78
2023-02-20T02:31:36.400Z,5.81
2023-02-20T02:32:36.354Z,5.83
2023-02-20T02:33:36.313Z,5.85
2023-02-20T02:34:36.292Z,5.82
2023-02-20T02:35:36.286Z,5.85
2023-02-20T02:36:36.277Z,5.75
2023-02-20T02:37:36.284Z,5.91
2023-02-20T02:38:36.250Z,5.82
2023-02-20T02:39:36.249Z,5.82
2023-02-20T02:40:36.232Z,5.82
2023-02-20T02:41:36.238Z,5.83
2023-02-20T02:42:36.230Z,5.89
2023-02-20T02:43:36.216Z,5.78
2023-02-20T02:44:36.237Z,5.85
2023-02-20T02:45:36.197Z,5.78
2023-02-20T02:46:36.161Z,5.75
2023-02-20T02:47:36.156Z,5.71
2023-02-20T02:48:36.179Z,5.75
2023-02-20T02:49:36.140Z,5.78
2023-02-20T02:50:36.122Z,5.74
2023-02-20T02:51:36.119Z,5.70
2023-02-20T02:52:36.103Z,5.73
2023-02-20T02:53:36.133Z,5.77
2023-02-20T02:54:36.085Z,5.70
2023-02-20T02:55:36.090Z,5.68
2023-02-20T02:56:36.070Z,5.67
2023-02-20T02:57:36.051Z,5.60
2023-02-20T02:58:36.079Z,5.64
2023-02-20T02:59:36.030Z,5.55
2023-02-20T03:00:36.021Z,5.59
2023-02-20T03:01:36.000Z,5.53
2023-02-20T03:02:36.179Z,5.49
2023-02-20T03:03:36.006Z,5.53
2023-02-20T03:04:35.975Z,5.41
2023-02-20T03:05:35.959Z,5.34
2023-02-20T03:06:35.940Z,5.32
2023-02-20T03:07:35.932Z,5.35
2023-02-20T03:08:35.960Z,5.31
2023-02-20T03:09:35.929Z,5.28
2023-02-20T03:10:35.914Z,5.30
2023-02-20T03:11:35.896Z,5.23
2023-02-20T03:12:35.882Z,5.35
2023-02-20T03:13:35.886Z,5.27
2023-02-20T03:14:35.864Z,5.20
2023-02-20T03:15:35.865Z,5.23
2023-02-20T03:16:35.899Z,5.17
2023-02-20T03:17:35.821Z,5.14
2023-02-20T03:18:35.833Z,5.27
2023-02-20T03:19:35.796Z,5.22
2023-02-20T03:20:36.786Z,5.22
2023-02-20T03:21:35.784Z,5.17
2023-02-20T03:22:35.771Z,5.17
2023-02-20T03:23:35.812Z,5.16
2023-02-20T03:24:35.752Z,5.28
2023-02-20T03:25:35.734Z,5.12
2023-02-20T03:26:35.724Z,5.23
2023-02-20T03:27:35.711Z,5.14
2023-02-20T03:28:35.729Z,5.20
2023-02-20T03:29:35.690Z,5.16
2023-02-20T03:30:35.712Z,5.17
2023-02-20T03:31:35.717Z,5.20
2023-02-20T03:32:35.671Z,5.22
2023-02-20T03:33:35.658Z,5.20
2023-02-20T03:34:35.641Z,5.23
2023-02-20T03:35:35.621Z,5.23
2023-02-20T03:36:35.613Z,5.27
2023-02-20T03:37:35.597Z,5.31
2023-02-20T03:38:35.640Z,5.27
2023-02-20T03:39:35.582Z,5.22
2023-02-20T03:40:35.583Z,5.35
2023-02-20T03:41:35.563Z,5.35
2023-02-20T03:42:35.555Z,5.28
2023-02-20T03:43:35.547Z,5.35
2023-02-20T03:44:35.523Z,5.27
2023-02-20T03:45:35.528Z,5.34
2023-02-20T03:46:35.500Z,5.34
2023-02-20T03:47:35.718Z,5.40
2023-02-20T03:48:36.492Z,5.37
2023-02-20T03:49:35.469Z,5.27
2023-02-20T03:50:35.445Z,5.38
2023-02-20T03:51:35.438Z,5.38
2023-02-20T03:52:35.430Z,5.40
2023-02-20T03:53:35.482Z,5.38
2023-02-20T03:54:35.413Z,5.50
2023-02-20T03:55:35.393Z,5.37
2023-02-20T03:56:35.384Z,5.43
2023-02-20T03:57:36.378Z,5.37
2023-02-20T03:58:35.375Z,5.46
2023-02-20T03:59:35.357Z,5.35
2023-02-20T04:00:35.349Z,5.43
2023-02-20T04:01:35.423Z,5.53
2023-02-20T04:02:35.349Z,5.49
2023-02-20T04:03:35.378Z,5.40
2023-02-20T04:04:35.291Z,5.49
2023-02-20T04:05:35.275Z,5.50
2023-02-20T04:06:35.269Z,5.43
2023-02-20T04:07:35.260Z,5.46
2023-02-20T04:08:35.298Z,5.28
2023-02-20T04:09:35.242Z,5.43
2023-02-20T04:10:35.223Z,5.25
2023-02-20T04:11:35.214Z,5.41
2023-02-20T04:12:35.201Z,5.38
2023-02-20T04:13:35.204Z,5.31
2023-02-20T04:14:35.204Z,5.40
2023-02-20T04:15:35.168Z,5.31
2023-02-20T04:16:35.173Z,5.34
2023-02-20T04:17:35.138Z,5.30
2023-02-20T04:18:35.133Z,5.38
2023-02-20T04:19:35.138Z,5.41
2023-02-20T04:20:35.123Z,5.28
2023-02-20T04:21:35.114Z,5.40
2023-02-20T04:22:35.090Z,5.37
2023-02-20T04:23:35.076Z,5.37
2023-02-20T04:24:35.104Z,5.37
2023-02-20T04:25:35.042Z,5.35
2023-02-20T04:26:35.037Z,5.37
2023-02-20T04:27:35.028Z,5.35
2023-02-20T04:28:35.021Z,5.40
2023-02-20T04:29:35.007Z,5.32
2023-02-20T04:30:36.102Z,5.35
2023-02-20T04:31:34.997Z,5.40
2023-02-20T04:32:34.968Z,5.48
2023-02-20T04:33:35.008Z,5.30
2023-02-20T04:34:34.939Z,5.38
2023-02-20T04:35:34.930Z,5.32
2023-02-20T04:36:34.914Z,5.40
2023-02-20T04:37:34.911Z,5.38
2023-02-20T04:38:34.949Z,5.32
2023-02-20T04:39:34.893Z,5.37
2023-02-20T04:40:34.871Z,5.40
2023-02-20T04:41:34.869Z,5.37
2023-02-20T04:42:34.874Z,5.31
2023-02-20T04:43:34.857Z,5.45
2023-02-20T04:44:34.824Z,5.38
2023-02-20T04:45:34.810Z,5.35
2023-02-20T04:46:34.799Z,5.27
2023-02-20T04:47:34.804Z,5.28
2023-02-20T04:48:34.803Z,5.35
2023-02-20T04:49:34.785Z,5.34
2023-02-20T04:50:34.762Z,5.30
2023-02-20T04:51:34.737Z,5.38
2023-02-20T04:52:34.732Z,5.32
2023-02-20T04:53:34.760Z,5.32
2023-02-20T04:54:34.717Z,5.31
2023-02-20T04:55:34.695Z,5.28
2023-02-20T04:56:34.683Z,5.30
2023-02-20T04:57:34.666Z,5.31
2023-02-20T04:58:34.677Z,5.32
2023-02-20T04:59:34.649Z,5.35
2023-02-20T05:00:34.627Z,5.27
2023-02-20T05:01:35.654Z,5.32
2023-02-20T05:02:34.630Z,5.45
2023-02-20T05:03:34.637Z,5.35
2023-02-20T05:04:34.663Z,5.34
2023-02-20T05:05:34.588Z,5.32
2023-02-20T05:06:34.578Z,5.28
2023-02-20T05:07:34.564Z,5.34
2023-02-20T05:08:34.584Z,5.34
2023-02-20T05:09:34.542Z,5.32
2023-02-20T05:10:34.533Z,5.41
2023-02-20T05:11:34.523Z,5.35
2023-02-20T05:12:34.510Z,5.34
2023-02-20T05:13:34.523Z,5.27
2023-02-20T05:14:34.486Z,5.35
2023-02-20T05:15:34.534Z,5.40
2023-02-20T05:16:34.467Z,5.35
2023-02-20T05:17:34.463Z,5.32
2023-02-20T05:18:34.471Z,5.31
2023-02-20T05:19:34.435Z,5.40
2023-02-20T05:20:34.441Z,5.30
2023-02-20T05:21:34.410Z,5.43
2023-02-20T05:22:34.407Z,5.31
2023-02-20T05:23:34.430Z,5.40
2023-02-20T05:24:34.393Z,5.37
2023-02-20T05:25:34.364Z,5.48
2023-02-20T05:26:34.360Z,5.41
2023-02-20T05:27:34.351Z,5.52
2023-02-20T05:28:34.327Z,5.37
2023-02-20T05:29:34.340Z,5.53
2023-02-20T05:30:34.346Z,5.50
2023-02-20T05:31:34.418Z,5.46
2023-02-20T05:32:34.298Z,5.40
2023-02-20T05:33:34.279Z,5.49
2023-02-20T05:34:34.274Z,5.48
2023-02-20T05:35:34.249Z,5.48
2023-02-20T05:36:34.281Z,5.52
2023-02-20T05:37:34.233Z,5.46
2023-02-20T05:38:34.221Z,5.50
2023-02-20T05:39:34.222Z,5.48
2023-02-20T05:40:34.186Z,5.49
2023-02-20T05:41:34.180Z,5.45
2023-02-20T05:42:35.587Z,5.40
2023-02-20T05:43:34.160Z,5.43
2023-02-20T05:44:34.162Z,5.41
2023-02-20T05:45:34.138Z,5.43
2023-02-20T05:46:34.119Z,5.43
2023-02-20T05:47:34.112Z,5.46
2023-02-20T05:48:34.099Z,5.40
2023-02-20T05:49:34.118Z,5.38
2023-02-20T05:50:34.081Z,5.43
2023-02-20T05:51:34.397Z,5.45
2023-02-20T05:52:35.080Z,5.46
2023-02-20T05:53:34.045Z,5.46
2023-02-20T05:54:34.053Z,5.40
2023-02-20T05:55:34.033Z,5.46
2023-02-20T05:56:34.013Z,5.41
2023-02-20T05:57:34.019Z,5.46
2023-02-20T05:58:33.995Z,5.52
2023-02-20T05:59:33.974Z,5.52
2023-02-20T06:00:33.966Z,5.50
2023-02-20T06:01:33.955Z,5.48
2023-02-20T06:02:33.956Z,5.41
2023-02-20T06:03:33.991Z,5.45
2023-02-20T06:04:33.970Z,5.38
2023-02-20T06:05:33.904Z,5.41
2023-02-20T06:06:33.901Z,5.48
2023-02-20T06:07:33.882Z,5.35
2023-02-20T06:08:33.893Z,5.37
2023-02-20T06:09:34.882Z,5.46
2023-02-20T06:10:33.871Z,5.49
2023-02-20T06:11:33.858Z,5.38
2023-02-20T06:12:33.828Z,5.40
2023-02-20T06:13:33.813Z,5.32
2023-02-20T06:14:33.829Z,5.40
2023-02-20T06:15:33.800Z,5.46
2023-02-20T06:16:33.823Z,5.35
2023-02-20T06:17:33.786Z,5.45
2023-02-20T06:18:33.756Z,5.48
2023-02-20T06:19:33.747Z,5.41
2023-02-20T06:20:33.735Z,5.46
2023-02-20T06:21:33.724Z,5.45
2023-02-20T06:22:33.731Z,5.45
2023-02-20T06:23:33.700Z,5.52
2023-02-20T06:24:33.703Z,5.50
2023-02-20T06:25:33.676Z,5.46
2023-02-20T06:26:33.663Z,5.46
2023-02-20T06:27:33.690Z,5.52
2023-02-20T06:28:33.647Z,5.50
2023-02-20T06:29:33.645Z,5.46
2023-02-20T06:30:33.728Z,5.45
2023-02-20T06:31:33.829Z,5.52
2023-02-20T06:32:33.617Z,5.40
2023-02-20T06:33:33.597Z,5.43
2023-02-20T06:34:33.606Z,5.46
2023-02-20T06:35:33.581Z,5.48
2023-02-20T06:36:33.603Z,5.46
2023-02-20T06:37:33.570Z,5.48
2023-02-20T06:38:33.540Z,5.41
2023-02-20T06:39:33.543Z,5.49
2023-02-20T06:40:33.543Z,5.40
2023-02-20T06:41:33.519Z,5.52
2023-02-20T06:42:33.493Z,5.43
2023-02-20T06:43:33.486Z,5.46
2023-02-20T06:44:33.482Z,5.48
2023-02-20T06:45:33.461Z,5.48
2023-02-20T06:46:33.494Z,5.49
2023-02-20T06:47:33.446Z,5.46
2023-02-20T06:48:33.447Z,5.45
2023-02-20T06:49:33.431Z,5.48
2023-02-20T06:50:33.404Z,5.40
2023-02-20T06:51:33.403Z,5.37
2023-02-20T06:52:33.377Z,5.40
2023-02-20T06:53:33.372Z,5.48
2023-02-20T06:54:33.379Z,5.48
2023-02-20T06:55:33.356Z,5.43
2023-02-20T06:56:33.346Z,5.46
2023-02-20T06:57:33.355Z,5.46
2023-02-20T06:58:33.325Z,5.48
2023-02-20T06:59:33.334Z,5.46
2023-02-20T07:00:33.340Z,5.46
2023-02-20T07:01:33.302Z,5.38
2023-02-20T07:02:33.277Z,5.43
2023-02-20T07:03:33.267Z,5.57
2023-02-20T07:04:33.262Z,5.46
2023-02-20T07:05:33.246Z,5.49
2023-02-20T07:06:33.231Z,5.55
2023-02-20T07:07:33.276Z,5.49
2023-02-20T07:08:33.228Z,5.52
2023-02-20T07:09:33.198Z,5.48
2023-02-20T07:10:33.194Z,5.49
2023-02-20T07:11:33.179Z,5.55
2023-02-20T07:12:33.173Z,5.59
2023-02-20T07:13:33.157Z,5.55
2023-02-20T07:14:33.156Z,5.57
2023-02-20T07:15:33.183Z,5.55
2023-02-20T07:16:33.128Z,5.66
2023-02-20T07:17:33.109Z,5.59
2023-02-20T07:18:33.098Z,5.60
2023-02-20T07:19:33.098Z,5.57
2023-02-20T07:20:33.089Z,5.66
2023-02-20T07:21:33.088Z,5.64
2023-02-20T07:22:33.064Z,5.71
2023-02-20T07:23:33.043Z,5.64
2023-02-20T07:24:33.049Z,5.63
2023-02-20T07:25:33.023Z,5.74
2023-02-20T07:26:33.014Z,5.66
2023-02-20T07:27:33.004Z,5.73
2023-02-20T07:28:32.988Z,5.75
2023-02-20T07:29:32.983Z,5.78
2023-02-20T07:30:33.005Z,5.66
2023-02-20T07:31:33.017Z,5.68
2023-02-20T07:32:32.952Z,5.70
2023-02-20T07:33:32.935Z,5.70
2023-02-20T07:34:32.935Z,5.85
2023-02-20T07:35:32.908Z,5.78
2023-02-20T07:36:32.896Z,5.86
2023-02-20T07:37:32.893Z,5.77
2023-02-20T07:38:32.873Z,5.91
2023-02-20T07:39:32.890Z,5.93
2023-02-20T07:40:32.856Z,5.81
2023-02-20T07:41:32.859Z,5.82
2023-02-20T07:42:32.828Z,5.83
2023-02-20T07:43:32.843Z,5.75
2023-02-20T07:44:32.870Z,5.81
2023-02-20T07:45:32.814Z,5.89
2023-02-20T07:46:33.922Z,5.91
2023-02-20T07:47:32.771Z,5.86
2023-02-20T07:48:32.765Z,5.82
2023-02-20T07:49:32.809Z,5.82
2023-02-20T07:50:32.746Z,5.85
2023-02-20T07:51:32.750Z,5.89
2023-02-20T07:52:32.719Z,5.86
2023-02-20T07:53:32.709Z,6.01
2023-02-20T07:54:32.719Z,5.93
2023-02-20T07:55:32.698Z,5.85
2023-02-20T07:56:32.680Z,5.93
2023-02-20T07:57:32.668Z,5.92
2023-02-20T07:58:32.661Z,6.03
2023-02-20T07:59:32.664Z,6.06
2023-02-20T08:00:32.637Z,6.10
2023-02-20T08:01:32.680Z,6.09
2023-02-20T08:02:32.624Z,6.00
2023-02-20T08:03:32.601Z,6.09
2023-02-20T08:04:32.610Z,6.11
2023-02-20T08:05:40.272Z,6.13
2023-02-20T08:06:34.571Z,6.19
2023-02-20T08:07:32.558Z,6.16
2023-02-20T08:08:32.548Z,6.16
2023-02-20T08:09:32.549Z,6.21
2023-02-20T08:10:32.520Z,6.19
2023-02-20T08:11:32.517Z,6.29
2023-02-20T08:12:32.503Z,6.26
2023-02-20T08:13:32.492Z,6.33
2023-02-20T08:14:32.495Z,6.32
2023-02-20T08:15:32.472Z,6.41
2023-02-20T08:16:32.506Z,6.40
2023-02-20T08:17:45.609Z,6.40
2023-02-20T08:18:34.451Z,6.46
2023-02-20T08:19:32.476Z,6.35
2023-02-20T08:20:32.407Z,6.43
2023-02-20T08:21:33.418Z,6.41
2023-02-20T08:22:41.313Z,6.46
2023-02-20T08:23:34.386Z,6.43
2023-02-20T08:24:32.393Z,6.47
2023-02-20T08:25:32.365Z,6.54
2023-02-20T08:26:32.343Z,6.48
2023-02-20T08:27:33.342Z,6.54
2023-02-20T08:28:32.330Z,6.61
2023-02-20T08:29:32.334Z,6.44
2023-02-20T08:30:32.371Z,6.54
2023-02-20T08:31:33.166Z,6.50
2023-02-20T08:32:33.378Z,6.58
2023-02-20T08:33:32.284Z,6.41
2023-02-20T08:34:32.300Z,6.48
2023-02-20T08:35:32.288Z,6.54
2023-02-20T08:36:32.257Z,6.59
2023-02-20T08:37:32.256Z,6.59
2023-02-20T08:38:32.239Z,6.59
2023-02-20T08:39:32.239Z,6.54
2023-02-20T08:40:32.240Z,6.59
2023-02-20T08:41:32.205Z,6.68
2023-02-20T08:42:32.200Z,6.76
2023-02-20T08:43:32.185Z,6.83
2023-02-20T08:44:32.200Z,6.84
2023-02-20T08:45:32.214Z,6.90
2023-02-20T08:46:32.152Z,6.86
2023-02-20T08:47:32.154Z,6.91
2023-02-20T08:48:32.148Z,6.94
2023-02-20T08:49:32.146Z,7.08
2023-02-20T08:50:32.114Z,7.17
2023-02-20T08:51:32.114Z,7.20
2023-02-20T08:52:32.114Z,7.31
2023-02-20T08:53:32.084Z,7.35
2023-02-20T08:54:32.101Z,7.27
2023-02-20T08:55:32.064Z,7.37
2023-02-20T08:56:32.056Z,7.35
2023-02-20T08:57:32.058Z,7.42
2023-02-20T08:58:32.042Z,7.58
2023-02-20T08:59:32.060Z,7.60
2023-02-20T09:00:34.165Z,7.60
2023-02-20T09:01:32.062Z,7.62
2023-02-20T09:02:32.015Z,7.62
2023-02-20T09:03:31.983Z,7.63
2023-02-20T09:04:31.991Z,7.63
2023-02-20T09:05:33.034Z,7.62
2023-02-20T09:06:31.959Z,7.67
2023-02-20T09:07:31.945Z,7.63
2023-02-20T09:08:31.957Z,7.72
2023-02-20T09:09:31.925Z,7.72
2023-02-20T09:10:31.940Z,7.77
2023-02-20T09:11:31.923Z,7.87
2023-02-20T09:12:31.900Z,7.89
2023-02-20T09:13:31.897Z,7.85
2023-02-20T09:15:03.804Z,7.94
2023-02-20T09:15:31.866Z,7.99
2023-02-20T09:16:31.894Z,8.03
2023-02-20T09:17:31.855Z,7.97
2023-02-20T09:18:31.843Z,8.03
2023-02-20T09:19:31.926Z,7.97
2023-02-20T09:20:31.835Z,7.96
2023-02-20T09:21:31.836Z,8.04
2023-02-20T09:22:31.799Z,8.11
2023-02-20T09:23:31.799Z,8.02
2023-02-20T09:24:32.164Z,8.07
2023-02-20T09:25:31.784Z,8.14
2023-02-20T09:26:31.754Z,8.14
2023-02-20T09:27:31.753Z,8.14
2023-02-20T09:28:31.732Z,8.11
2023-02-20T09:29:31.748Z,8.22
2023-02-20T09:30:31.779Z,8.39
2023-02-20T09:31:31.771Z,8.55
2023-02-20T09:32:31.828Z,8.57
2023-02-20T09:33:31.681Z,8.53
2023-02-20T09:34:31.684Z,8.42
2023-02-20T09:35:31.703Z,8.36
2023-02-20T09:36:31.656Z,8.33
2023-02-20T09:37:31.659Z,8.48
2023-02-20T09:38:31.644Z,8.32
2023-02-20T09:39:31.621Z,8.30
2023-02-20T09:40:31.632Z,8.47
2023-02-20T09:41:31.628Z,8.48
2023-02-20T09:42:31.595Z,8.39
2023-02-20T09:43:31.581Z,8.45
2023-02-20T09:44:31.579Z,8.42
2023-02-20T09:45:31.581Z,8.53
2023-02-20T09:46:31.550Z,8.55
2023-02-20T09:47:31.557Z,8.62
2023-02-20T09:48:31.538Z,8.53
2023-02-20T09:49:31.534Z,8.45
2023-02-20T09:50:31.616Z,8.53
2023-02-20T09:51:31.507Z,8.53
2023-02-20T09:52:31.501Z,8.66
2023-02-20T09:53:31.490Z,8.55
2023-02-20T09:54:31.484Z,8.57
2023-02-20T09:55:31.478Z,8.76
2023-02-20T09:56:31.449Z,8.83
2023-02-20T09:57:31.455Z,8.73
2023-02-20T09:58:31.437Z,8.79
2023-02-20T09:59:31.442Z,8.81
2023-02-20T10:00:31.454Z,8.86
2023-02-20T10:01:31.404Z,8.96
2023-02-20T10:02:31.581Z,8.93
2023-02-20T10:03:31.391Z,9.05
2023-02-20T10:04:31.386Z,9.09
2023-02-20T10:05:31.392Z,9.13
2023-02-20T10:06:31.380Z,9.18
2023-02-20T10:07:31.339Z,9.23
2023-02-20T10:08:31.327Z,9.32
2023-02-20T10:09:31.325Z,9.25
2023-02-20T10:10:31.329Z,9.25
2023-02-20T10:11:31.301Z,9.23
2023-02-20T10:12:31.302Z,9.28
2023-02-20T10:13:31.297Z,9.31
2023-02-20T10:14:31.266Z,9.35
2023-02-20T10:15:31.293Z,9.27
2023-02-20T10:16:31.283Z,9.49
2023-02-20T10:17:31.237Z,9.42
2023-02-20T10:18:31.241Z,9.48
2023-02-20T10:19:31.221Z,9.49
2023-02-20T10:20:32.230Z,9.57
2023-02-20T10:21:31.198Z,9.56
2023-02-20T10:22:31.205Z,9.64
2023-02-20T10:23:31.193Z,9.56
2023-02-20T10:24:31.165Z,9.57
2023-02-20T10:25:31.188Z,9.61
2023-02-20T10:26:31.157Z,9.60
2023-02-20T10:27:31.149Z,9.67
2023-02-20T10:28:31.127Z,9.56
2023-02-20T10:29:31.121Z,9.48
2023-02-20T10:30:31.211Z,9.67
2023-02-20T10:31:31.207Z,9.71
2023-02-20T10:32:31.095Z,9.75
2023-02-20T10:33:31.093Z,9.81
2023-02-20T10:34:31.072Z,10.00
2023-02-20T10:35:31.077Z,9.96
2023-02-20T10:36:31.052Z,10.06
2023-02-20T10:37:45.271Z,10.07
2023-02-20T10:38:33.030Z,10.06
2023-02-20T10:39:31.077Z,10.14
2023-02-20T10:40:31.034Z,10.15
2023-02-20T10:41:31.000Z,10.19
2023-02-20T10:42:30.990Z,10.28
2023-02-20T10:43:30.985Z,10.26
2023-02-20T10:44:33.563Z,10.33
2023-02-20T10:45:32.991Z,10.39
2023-02-20T10:46:47.750Z,10.37
2023-02-20T10:47:32.957Z,10.34
2023-02-20T10:48:30.937Z,10.39
2023-02-20T10:49:30.925Z,10.43
2023-02-20T10:50:30.937Z,10.42
2023-02-20T10:51:30.945Z,10.42
2023-02-20T10:52:34.510Z,10.43
2023-02-20T10:53:31.877Z,10.47
2023-02-20T10:54:30.880Z,10.65
2023-02-20T10:55:30.905Z,10.62
2023-02-20T10:56:30.842Z,10.70
2023-02-20T10:57:30.839Z,10.60
2023-02-20T10:58:30.817Z,10.58
2023-02-20T10:59:30.823Z,10.71
2023-02-20T11:00:30.845Z,10.74
2023-02-20T11:01:30.854Z,10.63
2023-02-20T11:02:30.788Z,10.77
2023-02-20T11:03:30.780Z,10.83
2023-02-20T11:04:30.773Z,10.91
2023-02-20T11:05:32.682Z,10.91
2023-02-20T11:06:30.744Z,10.94
2023-02-20T11:07:30.733Z,10.88
2023-02-20T11:08:30.729Z,10.89
2023-02-20T11:09:30.715Z,10.91
2023-02-20T11:10:30.745Z,10.92
2023-02-20T11:11:30.721Z,10.96
2023-02-20T11:12:32.445Z,11.13
2023-02-20T11:13:31.667Z,11.20
2023-02-20T11:14:39.841Z,11.27
2023-02-20T11:15:32.749Z,11.27
2023-02-20T11:16:30.637Z,11.34
2023-02-20T11:17:30.628Z,11.34
2023-02-20T11:18:30.623Z,11.41
2023-02-20T11:19:30.676Z,11.49
2023-02-20T11:20:30.610Z,11.41
2023-02-20T11:21:30.581Z,11.57
2023-02-20T11:22:30.578Z,11.71
2023-02-20T11:23:30.569Z,11.62
2023-02-20T11:24:30.591Z,11.54
2023-02-20T11:25:30.563Z,11.53
2023-02-20T11:26:30.609Z,11.53
2023-02-20T11:27:30.522Z,11.59
2023-02-20T11:28:30.525Z,11.65
2023-02-20T11:29:30.537Z,11.56
2023-02-20T11:30:30.608Z,11.65
2023-02-20T11:31:30.630Z,11.71
2023-02-20T11:32:30.495Z,11.75
2023-02-20T11:33:30.466Z,11.74
2023-02-20T11:34:30.454Z,11.77
2023-02-20T11:35:30.449Z,11.78
2023-02-20T11:36:30.466Z,11.97
2023-02-20T11:37:30.430Z,12.04
2023-02-20T11:38:30.495Z,12.04
2023-02-20T11:39:30.406Z,12.06
2023-02-20T11:40:30.408Z,12.01
2023-02-20T11:41:30.413Z,11.93
2023-02-20T11:42:30.418Z,11.87
2023-02-20T11:43:30.371Z,11.85
2023-02-20T11:44:30.360Z,11.82
2023-02-20T11:45:30.347Z,11.82
2023-02-20T11:46:30.397Z,11.82
2023-02-20T11:47:30.336Z,11.86
2023-02-20T11:48:30.330Z,11.75
2023-02-20T11:49:30.316Z,11.70
2023-02-20T11:50:30.303Z,11.68
2023-02-20T11:51:30.336Z,11.67
2023-02-20T11:52:30.302Z,11.59
2023-02-20T11:53:30.270Z,11.62
2023-02-20T11:54:30.251Z,11.68
2023-02-20T11:55:30.245Z,11.75
2023-02-20T11:56:30.263Z,11.80
2023-02-20T11:57:30.245Z,11.86
2023-02-20T11:58:30.207Z,11.82
2023-02-20T11:59:30.218Z,11.85
2023-02-20T12:00:30.232Z,11.86
2023-02-20T12:01:30.228Z,11.87
2023-02-20T12:02:30.208Z,11.85
2023-02-20T12:03:30.167Z,11.94
2023-02-20T12:04:30.144Z,11.83
2023-02-20T12:05:30.217Z,11.94
2023-02-20T12:06:30.143Z,11.96
2023-02-20T12:07:30.136Z,11.86
2023-02-20T12:08:30.138Z,11.82
2023-02-20T12:09:30.101Z,11.83
2023-02-20T12:10:30.090Z,11.94
2023-02-20T12:11:30.084Z,11.93
2023-02-20T12:12:30.097Z,11.90
2023-02-20T12:13:30.069Z,11.75
2023-02-20T12:14:30.048Z,11.75
2023-02-20T12:15:30.039Z,11.74
2023-02-20T12:16:30.072Z,11.80
2023-02-20T12:17:30.034Z,11.83
2023-02-20T12:18:30.010Z,11.86
2023-02-20T12:19:30.002Z,11.89
2023-02-20T12:20:29.987Z,11.93
2023-02-20T12:21:29.974Z,12.08
2023-02-20T12:22:29.991Z,12.02
2023-02-20T12:23:29.965Z,11.90
2023-02-20T12:24:29.957Z,11.97
2023-02-20T12:25:29.937Z,12.02
2023-02-20T12:26:29.976Z,12.01
2023-02-20T12:27:29.916Z,11.99
2023-02-20T12:28:29.902Z,11.97
2023-02-20T12:29:30.899Z,12.02
2023-02-20T12:30:29.887Z,12.23
2023-02-20T12:31:29.992Z,12.29
2023-02-20T12:32:29.875Z,12.39
2023-02-20T12:33:29.899Z,12.41
2023-02-20T12:34:29.876Z,12.51
2023-02-20T12:35:29.843Z,12.59
2023-02-20T12:36:29.851Z,12.52
2023-02-20T12:37:29.825Z,12.66
2023-02-20T12:38:29.815Z,12.82
2023-02-20T12:39:29.802Z,12.89
2023-02-20T12:40:29.787Z,13.07
2023-02-20T12:41:29.821Z,13.12
2023-02-20T12:42:29.765Z,13.12
2023-02-20T12:43:29.763Z,13.00
2023-02-20T12:44:29.760Z,12.93
2023-02-20T12:45:29.781Z,12.92
2023-02-20T12:46:29.780Z,12.81
2023-02-20T12:47:29.728Z,12.70
2023-02-20T12:48:29.717Z,12.63
2023-02-20T12:49:29.702Z,12.46
2023-02-20T12:50:29.689Z,12.30
2023-02-20T12:51:29.692Z,12.41
2023-02-20T12:52:29.670Z,12.31
2023-02-20T12:53:29.669Z,12.39
2023-02-20T12:54:29.658Z,12.45
2023-02-20T12:55:29.650Z,12.45
2023-02-20T12:56:29.641Z,12.64
2023-02-20T12:57:29.617Z,12.49
2023-02-20T12:58:29.617Z,12.45
2023-02-20T12:59:29.598Z,12.27
2023-02-20T13:00:29.688Z,12.21
2023-02-20T13:01:39.077Z,12.30
2023-02-20T13:02:41.258Z,12.30
2023-02-20T13:03:31.600Z,12.33
2023-02-20T13:04:29.569Z,12.38
2023-02-20T13:05:29.542Z,12.38
2023-02-20T13:06:29.562Z,12.30
2023-02-20T13:07:29.523Z,12.34
2023-02-20T13:08:29.510Z,12.30
2023-02-20T13:09:29.503Z,12.30
2023-02-20T13:10:29.500Z,12.38
2023-02-20T13:11:29.505Z,12.33
2023-02-20T13:12:29.468Z,12.30
2023-02-20T13:13:29.467Z,12.27